Neah Bay, WA (Traffic Separation Lighted Buoy) (46087)

Conditions for Thursday

Daily
Weekly
Monthly
Marine Data Graph

Marine & Boating Location Search

Enter a coastal zip code for marine weather.

General Information

Location: 48.494 North -124.728 West
Buoy Type: 3-meter discus buoy
Buoy Hull: 3D16
Payload: AMPS payload
Owned by: NDBC
Windspeed: Measured by obtained from anemometer
Sea Surface: Measured by Intake

Weather and Wave Data

Time Temp Humidity Wind Dominant Wave Wind Wave Wave Swell Pressure
  Air
(°F)
Water
(°F)
  Dir Speed
(kts)
Speed
(mph)
Period
(sec)
Height
(ft)
Range
(ft)
Period
(sec)
Height
(ft)
Range
(ft)
Period
(sec)
Height
(ft)
Range
(ft)
Atmo.
(in)
Tend.
(in)
20:20 46 46 80 West 1.9 2.2 - - - - - - 30.47 -
20:50 46 46 81 West 1.9 2.2 11 8.20 exactly 8.2 4 1.64 0.82 - 2.46 11 8.20 7.38 - 9.02 30.47 +0.03
21:20 45 46 85 ENE 1.9 2.2 - - - - - - 30.48 -
21:50 44 46 85 East 3.9 4.5 11 7.55 exactly 7.5 4 1.64 0.82 - 2.46 11 8.20 7.38 - 9.02 30.47 +0.01
22:20 45 46 81 East 3.9 4.5 - - - - - - 30.48 -
22:50 44 46 84 East 3.9 4.5 10 7.55 exactly 7.5 - - - 10 8.20 7.38 - 9.02 30.48 +0.01
23:20 45 46 82 East 5.8 6.7 - - - - - - 30.47 -
23:50 45 46 82 ESE 7.8 8.9 11 9.51 exactly 9.5 4 1.64 0.82 - 2.46 11 9.84 9.02 - 10.66 30.46 -0.01
00:20 45 46 86 SSE 1.9 2.2 - - - - - - 30.47 -
00:50 45 46 86 SE 3.9 4.5 11 8.53 exactly 8.5 4 1.64 0.82 - 2.46 11 8.20 7.38 - 9.02 30.48 -
01:20 44 46 90 ESE 7.8 8.9 - - - - - - 30.46 -
01:50 44 46 91 East 7.8 8.9 11 8.20 exactly 8.2 4 1.64 0.82 - 2.46 11 8.20 7.38 - 9.02 30.46 -0.01
02:20 44 46 91 ESE 9.7 11.2 - - - - - - 30.46 -
02:50 44 46 92 East 7.8 8.9 10 7.55 exactly 7.5 4 1.64 0.82 - 2.46 10 8.20 7.38 - 9.02 30.48 +0.01
03:20 43 46 97 East 5.8 6.7 - - - - - - 30.48 -
03:50 44 46 94 ESE 5.8 6.7 11 6.89 exactly 6.9 4 1.64 0.82 - 2.46 11 6.56 5.74 - 7.38 30.47 -
04:20 44 46 93 ESE 7.8 8.9 - - - - - - 30.46 -
04:50 44 46 93 East 9.7 11.2 10 7.87 exactly 7.9 4 1.64 0.82 - 2.46 10 8.20 7.38 - 9.02 30.46 -
05:20 44 46 93 East 9.7 11.2 - - - - - - 30.46 -
05:50 44 46 93 East 11.7 13.4 11 6.23 exactly 6.2 5 1.64 0.82 - 2.46 11 6.56 5.74 - 7.38 30.46 -0.01
06:20 43 46 99 East 11.7 13.4 - - - - - - 30.47 -
06:50 43 46 98 East 11.7 13.4 11 5.91 exactly 5.9 5 1.64 0.82 - 2.46 11 4.92 4.10 - 5.74 30.47 -
07:20 43 46 100 East 9.7 11.2 - - - - - - 30.47 -
07:50 43 46 100 East 13.6 15.7 11 5.91 exactly 5.9 5 1.64 0.82 - 2.46 11 4.92 4.10 - 5.74 30.48 +0.02
08:20 44 46 96 East 11.7 13.4 - - - - - - 30.49 -
08:50 44 46 96 East 13.6 15.7 11 5.25 exactly 5.2 5 1.64 0.82 - 2.46 11 4.92 4.10 - 5.74 30.49 +0.03
09:20 43 46 100 ESE 15.6 17.9 - - - - - - 30.49 -
09:50 44 46 96 ESE 13.6 15.7 11 6.56 exactly 6.6 5 1.64 0.82 - 2.46 11 6.56 5.74 - 7.38 30.51 +0.04
10:20 43 46 98 East 15.6 17.9 - - - - - - 30.50 -
10:50 43 46 98 East 15.6 17.9 10 5.91 exactly 5.9 5 1.64 0.82 - 2.46 10 4.92 4.10 - 5.74 30.51 +0.03
11:20 43 46 99 ESE 13.6 15.7 - - - - - - 30.51 -
11:50 43 46 99 ESE 13.6 15.7 11 5.91 exactly 5.9 6 1.64 0.82 - 2.46 11 6.56 5.74 - 7.38 30.52 +0.03
12:20 44 46 93 ESE 13.6 15.7 - - - - - - 30.52 -
12:50 44 46 94 ESE 11.7 13.4 11 6.23 exactly 6.2 5 1.64 0.82 - 2.46 11 6.56 5.74 - 7.38 30.53 +0.02
13:20 44 46 96 ESE 9.7 11.2 - - - - - - 30.53 -
13:50 44 46 96 ESE 7.8 8.9 11 5.58 exactly 5.6 3 1.64 0.82 - 2.46 11 4.92 4.10 - 5.74 30.53 +0.02
14:20 44 46 97 ESE 9.7 11.2 - - - - - - 30.53 -
14:50 44 46 97 ESE 7.8 8.9 10 5.91 exactly 5.9 4 1.64 0.82 - 2.46 10 6.56 5.74 - 7.38 30.53 -
15:20 44 46 97 East 7.8 8.9 - - - - - - 30.53 -
15:50 44 46 97 East 9.7 11.2 11 5.58 exactly 5.6 4 1.64 0.82 - 2.46 11 4.92 4.10 - 5.74 30.53 -
16:20 44 46 97 East 9.7 11.2 - - - - - - 30.52 -
16:50 44 46 98 East 7.8 8.9 11 5.91 exactly 5.9 4 1.64 0.82 - 2.46 11 4.92 4.10 - 5.74 30.53 -
17:20 45 46 94 East 9.7 11.2 - - - - - - 30.52 -
17:50 45 46 92 ESE 9.7 11.2 11 5.91 exactly 5.9 4 1.64 0.82 - 2.46 11 4.92 4.10 - 5.74 30.53 -
18:20 45 46 91 East 11.7 13.4 - - - - - - 30.53 -
18:50 45 46 92 East 11.7 13.4 11 5.91 exactly 5.9 4 1.64 0.82 - 2.46 11 6.56 5.74 - 7.38 30.54 +0.01
19:20 45 46 89 ESE 11.7 13.4 - - - - - - 30.54 -
19:50 45 46 91 East 11.7 13.4 11 5.91 exactly 5.9 5 1.64 0.82 - 2.46 11 6.56 5.74 - 7.38 30.54 +0.01
20:20 45 46 92 East 11.7 13.4 - - - - - - 30.54 -
20:50 45 46 93 East 11.7 13.4 11 6.23 exactly 6.2 6 1.64 0.82 - 2.46 11 6.56 5.74 - 7.38 30.53 -
21:50 45 46 96 ESE 11.7 13.4 15 5.58 exactly 5.6 5 1.64 0.82 - 2.46 15 4.92 4.10 - 5.74 30.55 +0.01
22:20 45 46 95 East 11.7 13.4 - - - - - - 30.55 -
22:50 45 46 96 East 9.7 11.2 14 5.58 exactly 5.6 5 1.64 0.82 - 2.46 14 4.92 4.10 - 5.74 30.55 +0.01
23:20 45 47 96 East 9.7 11.2 - - - - - - 30.55 -
23:50 46 47 90 East 11.7 13.4 11 5.58 exactly 5.6 5 1.64 0.82 - 2.46 11 4.92 4.10 - 5.74 30.55 +0.01
00:20 46 47 90 East 11.7 13.4 - - - - - - 30.55 -
00:50 45 47 96 East 11.7 13.4 11 6.23 exactly 6.2 3 1.64 0.82 - 2.46 11 6.56 5.74 - 7.38 30.54 -0.01
01:20 45 47 96 East 9.7 11.2 - - - - - - 30.53 -
01:50 45 47 97 ESE 9.7 11.2 12 4.59 exactly 4.6 3 1.64 0.82 - 2.46 12 4.92 4.10 - 5.74 30.53 -0.02
02:20 45 47 96 East 11.7 13.4 - - - - - - 30.52 -
02:50 45 47 95 ENE 9.7 11.2 11 5.58 exactly 5.6 5 1.64 0.82 - 2.46 11 4.92 4.10 - 5.74 30.51 -0.04
03:20 45 46 94 ENE 9.7 11.2 - - - - - - 30.51 -
03:50 45 46 94 East 7.8 8.9 11 5.91 exactly 5.9 - - - 11 6.56 5.74 - 7.38 30.51 -0.03

Detailed Wave Spectra

Time Water Depth Wave Height Spectral Peak Period Average Wave Period Sampling Interval Wave Record
20:00 843 ft 8.56 ft 12.1 sec 8.3 sec 0.6 sec 2400 sec
21:00 843 ft 8.14 ft 11.4 sec 8.8 sec 0.6 sec 2400 sec
22:00 843 ft 7.61 ft 11.4 sec 8.6 sec 0.6 sec 2400 sec
23:00 843 ft 7.61 ft 10.0 sec 8.6 sec 0.6 sec 2400 sec
00:00 843 ft 9.42 ft 11.4 sec 8.9 sec 0.6 sec 2400 sec
01:00 843 ft 8.63 ft 10.8 sec 8.6 sec 0.6 sec 2400 sec
02:00 843 ft 8.27 ft 10.8 sec 8.3 sec 0.6 sec 2400 sec
03:00 843 ft 7.68 ft 10.0 sec 8.0 sec 0.6 sec 2400 sec
04:00 843 ft 6.82 ft 10.8 sec 7.9 sec 0.6 sec 2400 sec
05:00 843 ft 7.87 ft 10.0 sec 8.6 sec 0.6 sec 2400 sec
06:00 843 ft 6.23 ft 10.8 sec 7.8 sec 0.6 sec 2400 sec
07:00 843 ft 5.87 ft 11.4 sec 7.4 sec 0.6 sec 2400 sec
08:00 843 ft 6.00 ft 11.4 sec 7.6 sec 0.6 sec 2400 sec
09:00 843 ft 5.22 ft 11.4 sec 7.2 sec 0.6 sec 2400 sec
10:00 843 ft 6.69 ft 10.8 sec 8.6 sec 0.6 sec 2400 sec
11:00 843 ft 5.91 ft 10.0 sec 7.9 sec 0.6 sec 2400 sec
12:00 843 ft 5.97 ft 11.4 sec 8.2 sec 0.6 sec 2400 sec
13:00 843 ft 6.33 ft 10.8 sec 8.4 sec 0.6 sec 2400 sec
14:00 843 ft 5.54 ft 10.8 sec 7.9 sec 0.6 sec 2400 sec
15:00 843 ft 5.97 ft 10.0 sec 7.9 sec 0.6 sec 2400 sec
16:00 843 ft 5.54 ft 10.8 sec 8.0 sec 0.6 sec 2400 sec
17:00 843 ft 5.77 ft 10.8 sec 8.3 sec 0.6 sec 2400 sec
18:00 843 ft 5.77 ft 10.8 sec 8.3 sec 0.6 sec 2400 sec
19:00 843 ft 5.97 ft 10.8 sec 8.3 sec 0.6 sec 2400 sec
20:00 843 ft 6.04 ft 10.8 sec 8.5 sec 0.6 sec 2400 sec
21:00 843 ft 6.17 ft 11.4 sec 8.7 sec 0.6 sec 2400 sec
22:00 843 ft 5.71 ft 14.8 sec 8.9 sec 0.6 sec 2400 sec
23:00 843 ft 5.48 ft 13.8 sec 8.6 sec 0.6 sec 2400 sec
00:00 843 ft 5.71 ft 11.4 sec 8.8 sec 0.6 sec 2400 sec
01:00 843 ft 6.20 ft 11.4 sec 8.9 sec 0.6 sec 2400 sec
02:00 843 ft 4.76 ft 12.1 sec 8.2 sec 0.6 sec 2400 sec
03:00 843 ft 5.48 ft 11.4 sec 8.3 sec 0.6 sec 2400 sec